Terminal Aerodrome Forecast
Issued by NWS Chicago, IL

Home | Current Version | Previous Version | Graphics & Text | Print | Product List | Glossary On
Versions: 1 2 3 4 5 6 7 8 9 10 11 12 13 14 15 16 17 18 19 20 21
487
FTUS43 KLOT 202109 AAA
TAFRFD
TAF AMD
KRFD 202109Z 2021/2118 28019G28KT P6SM OVC028
     FM210200 30014G21KT P6SM BKN028
     FM211200 33010G15KT P6SM BKN035=

USA.gov is the U.S. government's official web portal to all federal, state and local government web resources and services.